Time;durP1;ratioP1;P1;durP2;ratioP2;P2;SDS_P1;SDS_P2;PMS_P1;PMS_P2;Temp;Humidity;BMP_temperature;BMP_pressure;BME280_temperature;BME280_humidity;BME280_pressure;Samples;Min_cycle;Max_cycle;Signal;HPM_P1;HPM_P2
2022/11/08 00:02:49;;;;;;;2.93;0.80;;;;;;;-144.22;100.00;60274.75;6266026;28;20231;-41
2022/11/08 00:15:59;;;;;;;0.70;0.70;;;;;;;-144.22;100.00;60274.75;6265304;28;20239;-41
2022/11/08 00:19:01;;;;;;;1.37;0.90;;;;;;;-144.22;100.00;60274.75;6265463;28;20319;-41
2022/11/08 00:22:04;;;;;;;0.67;0.60;;;;;;;-144.22;100.00;60274.75;6266102;28;20268;-41
2022/11/08 00:25:06;;;;;;;1.13;1.00;;;;;;;-144.22;100.00;60274.75;6266497;28;20265;-41
2022/11/08 00:28:08;;;;;;;1.80;0.80;;;;;;;-144.22;100.00;60274.75;6265915;28;20312;-41
2022/11/08 00:31:10;;;;;;;2.83;0.70;;;;;;;-144.22;100.00;60274.75;6264342;28;20240;-41
2022/11/08 00:34:12;;;;;;;0.70;0.60;;;;;;;-144.22;100.00;60274.75;6265148;28;20229;-41
2022/11/08 00:37:16;;;;;;;1.87;0.73;;;;;;;-144.22;100.00;60274.75;6264477;28;20240;-41
2022/11/08 00:40:18;;;;;;;0.83;0.73;;;;;;;-144.22;100.00;60274.75;6264935;28;20721;-41
2022/11/08 00:43:20;;;;;;;0.60;0.57;;;;;;;-144.22;100.00;60274.75;6267806;28;20326;-41
2022/11/08 00:46:22;;;;;;;0.97;0.67;;;;;;;-144.22;100.00;60274.75;6264372;28;20237;-41
2022/11/08 00:49:24;;;;;;;0.63;0.63;;;;;;;-144.22;100.00;60274.75;6265942;28;20327;-41
2022/11/08 00:52:26;;;;;;;1.00;0.70;;;;;;;-144.22;100.00;60274.75;6265073;28;20223;-41
2022/11/08 00:55:29;;;;;;;1.43;0.77;;;;;;;-144.22;100.00;60274.75;6266402;28;20713;-41
2022/11/08 00:58:31;;;;;;;1.27;0.70;;;;;;;-144.22;100.00;60274.75;6263313;28;20635;-41
2022/11/08 01:01:33;;;;;;;0.87;0.70;;;;;;;-144.22;100.00;60274.75;6264865;28;20241;-41
2022/11/08 01:04:36;;;;;;;1.33;0.80;;;;;;;-144.22;100.00;60274.75;6264856;28;20239;-41
2022/11/08 01:07:39;;;;;;;1.10;0.60;;;;;;;-144.22;100.00;60274.75;6263724;28;20699;-41
2022/11/08 01:10:43;;;;;;;2.23;0.97;;;;;;;-144.22;100.00;60274.75;6264985;28;20327;-41
2022/11/08 01:13:45;;;;;;;0.60;0.60;;;;;;;-144.22;100.00;60274.75;6261258;28;20327;-41
2022/11/08 01:16:47;;;;;;;0.67;0.60;;;;;;;-144.22;100.00;60274.75;6266687;28;20223;-41
2022/11/08 01:19:49;;;;;;;0.73;0.67;;;;;;;-144.22;100.00;60274.75;6264636;28;20244;-41
2022/11/08 01:22:51;;;;;;;1.93;0.60;;;;;;;-144.22;100.00;60274.75;6264471;28;20314;-41
2022/11/08 01:25:54;;;;;;;1.17;0.70;;;;;;;-144.22;100.00;60274.75;6266250;28;20236;-41
2022/11/08 01:28:57;;;;;;;0.83;0.70;;;;;;;-144.22;100.00;60274.75;6266354;28;20241;-41
2022/11/08 01:31:59;;;;;;;0.60;0.60;;;;;;;-144.22;100.00;60274.75;6268477;28;20317;-41
2022/11/08 01:35:02;;;;;;;1.10;0.70;;;;;;;-144.22;100.00;60274.75;6264073;28;20708;-41
2022/11/08 01:38:05;;;;;;;1.47;0.60;;;;;;;-144.22;100.00;60274.75;6261958;28;20227;-41
2022/11/08 01:41:10;;;;;;;0.63;0.63;;;;;;;-144.22;100.00;60274.75;6264675;28;20637;-41
2022/11/08 01:44:16;;;;;;;0.87;0.60;;;;;;;-144.22;100.00;60274.75;6265783;28;20745;-41
2022/11/08 01:47:18;;;;;;;1.60;0.73;;;;;;;-144.22;100.00;60274.75;6269706;28;20250;-42
2022/11/08 01:50:20;;;;;;;0.70;0.70;;;;;;;-144.22;100.00;60274.75;6267944;28;20234;-43
2022/11/08 01:53:24;;;;;;;1.60;0.80;;;;;;;-144.22;100.00;60274.75;6252104;28;20234;-41
2022/11/08 01:56:26;;;;;;;1.77;1.00;;;;;;;-144.22;100.00;60274.75;6269310;28;20726;-41
2022/11/08 01:59:30;;;;;;;2.57;0.93;;;;;;;-144.22;100.00;60274.75;6267323;28;20332;-41
2022/11/08 02:02:34;;;;;;;3.33;0.90;;;;;;;-144.22;100.00;60274.75;6271409;28;20232;-41
2022/11/08 02:05:38;;;;;;;1.77;0.90;;;;;;;-144.22;100.00;60274.75;6268854;28;20245;-41
2022/11/08 02:08:42;;;;;;;0.83;0.83;;;;;;;-144.22;100.00;60274.75;6269215;28;20244;-41
2022/11/08 02:11:47;;;;;;;2.80;1.10;;;;;;;-144.22;100.00;60274.75;6267376;28;20236;-41
2022/11/08 02:14:49;;;;;;;0.90;0.90;;;;;;;-144.22;100.00;60274.75;6269152;28;20301;-41
2022/11/08 02:17:52;;;;;;;1.00;0.90;;;;;;;-144.22;100.00;60274.75;6270847;28;20240;-41
2022/11/08 02:21:15;;;;;;;2.97;0.80;;;;;;;-144.22;100.00;60274.75;6268001;28;20239;-41
2022/11/08 02:24:17;;;;;;;1.13;0.87;;;;;;;-144.22;100.00;60274.75;6271579;28;20569;-41
2022/11/08 02:27:19;;;;;;;1.00;0.77;;;;;;;-144.22;100.00;60274.75;6268603;28;20282;-41
2022/11/08 02:30:22;;;;;;;5.10;1.80;;;;;;;-144.22;100.00;60274.75;6268558;28;20225;-41
2022/11/08 02:33:24;;;;;;;4.00;1.70;;;;;;;-144.22;100.00;60274.75;6267075;28;20229;-41
2022/11/08 02:36:26;;;;;;;3.30;1.73;;;;;;;-144.22;100.00;60274.75;6266402;28;20311;-41
2022/11/08 02:39:28;;;;;;;3.03;1.10;;;;;;;-144.22;100.00;60274.75;6267300;28;20229;-41
2022/11/08 02:42:31;;;;;;;3.10;1.20;;;;;;;-144.22;100.00;60274.75;6265931;28;20283;-41
2022/11/08 02:45:33;;;;;;;1.10;0.90;;;;;;;-144.22;100.00;60274.75;6268693;28;20612;-41
2022/11/08 02:48:35;;;;;;;1.20;0.93;;;;;;;-144.22;100.00;60274.75;6266540;28;20230;-41
2022/11/08 02:51:37;;;;;;;5.70;1.37;;;;;;;-144.22;100.00;60274.75;6268719;28;20311;-41
2022/11/08 02:54:39;;;;;;;1.50;1.40;;;;;;;-144.22;100.00;60274.75;6270182;28;20698;-41
2022/11/08 02:57:41;;;;;;;1.50;1.00;;;;;;;-144.22;100.00;60274.75;6268456;28;20280;-41
2022/11/08 03:00:43;;;;;;;1.63;1.00;;;;;;;-144.22;100.00;60274.75;6266148;28;20383;-41
2022/11/08 03:03:45;;;;;;;1.90;0.70;;;;;;;-144.22;100.00;60274.75;6268757;28;20229;-41
2022/11/08 03:06:47;;;;;;;2.50;0.93;;;;;;;-144.22;100.00;60274.75;6266208;28;20243;-41
2022/11/08 03:09:49;;;;;;;1.53;0.70;;;;;;;-144.22;100.00;60274.75;6266429;28;20321;-41
2022/11/08 03:13:02;;;;;;;1.30;0.97;;;;;;;-144.22;100.00;60274.75;6266873;28;20313;-41
2022/11/08 03:16:05;;;;;;;1.67;0.83;;;;;;;-144.22;100.00;60274.75;6267138;28;20715;-41
2022/11/08 03:19:07;;;;;;;1.70;0.80;;;;;;;-144.22;100.00;60274.75;6267747;28;20229;-41
2022/11/08 03:22:09;;;;;;;1.87;0.63;;;;;;;-144.22;100.00;60274.75;6265812;28;20235;-41
2022/11/08 03:25:11;;;;;;;4.10;1.20;;;;;;;-144.22;100.00;60274.75;6267199;28;20261;-41
2022/11/08 03:28:13;;;;;;;1.20;0.70;;;;;;;-144.22;100.00;60274.75;6266328;28;20241;-41
2022/11/08 03:31:22;;;;;;;1.60;0.90;;;;;;;-144.22;100.00;60274.75;6265429;28;20377;-41
2022/11/08 03:34:24;;;;;;;1.10;0.90;;;;;;;-144.22;100.00;60274.75;6264515;28;20238;-41
2022/11/08 03:37:26;;;;;;;1.57;0.80;;;;;;;-144.22;100.00;60274.75;6268151;28;20243;-41
2022/11/08 03:40:28;;;;;;;1.00;0.70;;;;;;;-144.22;100.00;60274.75;6265313;28;20223;-41
2022/11/08 03:43:30;;;;;;;1.20;1.10;;;;;;;-144.22;100.00;60274.75;6265545;28;20256;-41
2022/11/08 03:46:33;;;;;;;1.67;1.07;;;;;;;-144.22;100.00;60274.75;6265630;28;20245;-41
2022/11/08 03:49:35;;;;;;;1.70;0.77;;;;;;;-144.22;100.00;60274.75;6265806;28;20389;-41
2022/11/08 03:52:45;;;;;;;1.40;0.90;;;;;;;-144.22;100.00;60274.75;6268681;28;20239;-41
2022/11/08 03:55:47;;;;;;;1.27;0.70;;;;;;;-144.22;100.00;60274.75;6265080;28;20297;-41
2022/11/08 03:58:49;;;;;;;1.47;0.73;;;;;;;-144.22;100.00;60274.75;6266785;28;20789;-41
2022/11/08 04:01:51;;;;;;;2.90;1.10;;;;;;;-144.22;100.00;60274.75;6266386;28;20595;-41
2022/11/08 04:04:54;;;;;;;1.77;1.10;;;;;;;-144.22;100.00;60274.75;6266211;28;20712;-41
2022/11/08 04:07:56;;;;;;;3.23;0.93;;;;;;;-144.22;100.00;60274.75;6263940;28;20244;-41
2022/11/08 04:15:13;;;;;;;1.00;0.90;;;;;;;-144.22;100.00;60274.75;6264741;28;20239;-41
2022/11/08 04:21:20;;;;;;;1.07;0.90;;;;;;;-144.22;100.00;60274.75;6266417;28;20379;-41
2022/11/08 04:24:22;;;;;;;3.00;1.10;;;;;;;-144.22;100.00;60274.75;6256724;28;20238;-41
2022/11/08 04:27:25;;;;;;;1.33;1.00;;;;;;;-144.22;100.00;60274.75;6267152;28;20234;-41
2022/11/08 04:30:27;;;;;;;1.17;1.07;;;;;;;-144.22;100.00;60274.75;6270168;28;20279;-41
2022/11/08 04:33:29;;;;;;;1.67;1.00;;;;;;;-144.22;100.00;60274.75;6271316;28;20224;-41
2022/11/08 04:36:32;;;;;;;1.47;0.97;;;;;;;-144.22;100.00;60274.75;6269511;28;20271;-40
2022/11/08 04:39:34;;;;;;;1.30;0.80;;;;;;;-144.22;100.00;60274.75;6265215;28;20361;-41
2022/11/08 04:42:36;;;;;;;1.53;1.20;;;;;;;-144.22;100.00;60274.75;6266866;28;20230;-41
2022/11/08 04:45:38;;;;;;;0.67;0.67;;;;;;;-144.22;100.00;60274.75;6265863;28;20234;-41
2022/11/08 04:48:42;;;;;;;2.70;0.90;;;;;;;-144.22;100.00;60274.75;6261378;28;20373;-41
2022/11/08 04:51:44;;;;;;;1.43;1.03;;;;;;;-144.22;100.00;60274.75;6268422;28;20230;-40
2022/11/08 04:54:46;;;;;;;0.97;0.80;;;;;;;-144.22;100.00;60274.75;6272877;28;20229;-41
2022/11/08 04:57:49;;;;;;;2.93;0.77;;;;;;;-144.22;100.00;60274.75;6264164;28;20329;-41
2022/11/08 05:00:51;;;;;;;1.90;1.17;;;;;;;-144.22;100.00;60274.75;6265347;28;20240;-41
2022/11/08 05:03:53;;;;;;;2.60;0.93;;;;;;;-144.22;100.00;60274.75;6265995;28;20219;-41
2022/11/08 05:06:56;;;;;;;2.90;1.00;;;;;;;-144.22;100.00;60274.75;6264096;28;20230;-41
2022/11/08 05:09:58;;;;;;;1.90;1.00;;;;;;;-144.22;100.00;60274.75;6265161;28;20227;-42
2022/11/08 05:13:04;;;;;;;2.50;0.87;;;;;;;-144.22;100.00;60274.75;6264583;28;20239;-41
2022/11/08 05:16:11;;;;;;;1.10;0.90;;;;;;;-144.22;100.00;60274.75;6266227;28;20268;-41
2022/11/08 05:23:22;;;;;;;0.97;0.83;;;;;;;-144.22;100.00;60274.75;6267926;28;20236;-41
2022/11/08 05:25:56;;;;;;;2.90;1.30;;;;;;;-144.22;100.00;60274.75;6270249;28;20782;-41
2022/11/08 05:28:59;;;;;;;2.67;1.10;;;;;;;-144.22;100.00;60274.75;6267972;28;20317;-41
2022/11/08 05:32:01;;;;;;;0.87;0.87;;;;;;;-144.22;100.00;60274.75;6268646;28;20257;-42
2022/11/08 05:35:03;;;;;;;1.47;1.13;;;;;;;-144.22;100.00;60274.75;6268847;28;20251;-41
2022/11/08 05:38:05;;;;;;;1.23;1.10;;;;;;;-144.22;100.00;60274.75;6268195;28;20590;-41
2022/11/08 05:41:16;;;;;;;1.17;1.07;;;;;;;-144.22;100.00;60274.75;6268668;28;20241;-41
2022/11/08 05:44:19;;;;;;;0.90;0.90;;;;;;;-144.22;100.00;60274.75;6268938;28;20259;-41
2022/11/08 05:47:21;;;;;;;1.67;1.10;;;;;;;-144.22;100.00;60274.75;6269019;28;20288;-41
2022/11/08 05:50:23;;;;;;;1.43;1.10;;;;;;;-144.22;100.00;60274.75;6268415;28;20256;-41
2022/11/08 05:53:26;;;;;;;2.17;1.10;;;;;;;-144.22;100.00;60274.75;6270702;28;20258;-41
2022/11/08 05:56:29;;;;;;;1.63;1.20;;;;;;;-144.22;100.00;60274.75;6268159;28;20237;-41
2022/11/08 05:59:31;;;;;;;1.60;1.20;;;;;;;-144.22;100.00;60274.75;6267666;28;20619;-41
2022/11/08 06:02:33;;;;;;;1.73;1.20;;;;;;;-144.22;100.00;60274.75;6271732;28;20373;-41
2022/11/08 06:05:36;;;;;;;2.97;1.30;;;;;;;-144.22;100.00;60274.75;6266465;28;20540;-41
2022/11/08 06:08:39;;;;;;;2.20;1.50;;;;;;;-144.22;100.00;60274.75;6267241;28;20238;-41
2022/11/08 06:11:41;;;;;;;2.43;1.60;;;;;;;-144.22;100.00;60274.75;6268105;28;20626;-41
2022/11/08 06:14:43;;;;;;;1.77;1.67;;;;;;;-144.22;100.00;60274.75;6266134;28;20772;-41
2022/11/08 06:17:45;;;;;;;2.83;1.80;;;;;;;-144.22;100.00;60274.75;6266711;28;20244;-41
2022/11/08 06:20:47;;;;;;;2.80;2.20;;;;;;;-144.22;100.00;60274.75;6268286;28;20251;-41
2022/11/08 06:23:53;;;;;;;1.80;1.50;;;;;;;-144.22;100.00;60274.75;6269781;28;20239;-41
2022/11/08 06:26:56;;;;;;;4.60;2.23;;;;;;;-144.22;100.00;60274.75;6268404;28;20606;-41
2022/11/08 06:29:58;;;;;;;5.43;2.33;;;;;;;-144.22;100.00;60274.75;6265429;28;20251;-41
2022/11/08 06:33:00;;;;;;;4.23;2.50;;;;;;;-144.22;100.00;60274.75;6269722;28;20318;-40
2022/11/08 06:36:03;;;;;;;7.60;2.50;;;;;;;-144.22;100.00;60274.75;6266730;28;20235;-41
2022/11/08 06:39:05;;;;;;;4.30;2.20;;;;;;;-144.22;100.00;60274.75;6267116;28;20253;-41
2022/11/08 06:42:09;;;;;;;4.27;2.67;;;;;;;-144.22;100.00;60274.75;6247953;28;20332;-41
2022/11/08 06:45:11;;;;;;;5.00;2.43;;;;;;;-144.22;100.00;60274.75;6266565;28;20219;-41
2022/11/08 06:48:13;;;;;;;5.80;2.90;;;;;;;-144.22;100.00;60274.75;6265819;28;20717;-42
2022/11/08 06:51:15;;;;;;;3.97;2.40;;;;;;;-144.22;100.00;60274.75;6266240;28;20245;-41
2022/11/08 06:54:18;;;;;;;5.53;2.80;;;;;;;-144.22;100.00;60274.75;6269609;28;20585;-40
2022/11/08 06:57:26;;;;;;;6.40;3.03;;;;;;;-144.22;100.00;60274.75;6265418;28;20231;-41
2022/11/08 07:00:29;;;;;;;12.87;3.97;;;;;;;-144.22;100.00;60274.75;6268780;28;20474;-41
2022/11/08 07:03:32;;;;;;;2.87;2.50;;;;;;;-144.22;100.00;60274.75;6266548;28;20257;-40
2022/11/08 07:06:35;;;;;;;3.10;2.57;;;;;;;-144.22;100.00;60274.75;6266505;28;20604;-40
2022/11/08 07:09:37;;;;;;;4.77;3.57;;;;;;;-144.22;100.00;60274.75;6265354;28;20602;-40
2022/11/08 07:12:39;;;;;;;5.07;3.70;;;;;;;-144.22;100.00;60274.75;6265829;28;20230;-41
2022/11/08 07:15:41;;;;;;;6.67;4.33;;;;;;;-144.22;100.00;60274.75;6266070;28;20269;-40
2022/11/08 07:18:43;;;;;;;5.70;3.80;;;;;;;-144.22;100.00;60274.75;6264506;28;20235;-40
2022/11/08 07:21:45;;;;;;;7.00;4.53;;;;;;;-144.22;100.00;60274.75;6267553;28;20236;-40
2022/11/08 07:24:47;;;;;;;7.57;5.10;;;;;;;-144.22;100.00;60274.75;6266828;28;20574;-40
2022/11/08 07:27:53;;;;;;;7.57;4.93;;;;;;;-144.22;100.00;60274.75;6266759;28;20230;-40
2022/11/08 07:31:00;;;;;;;8.43;5.60;;;;;;;-144.22;100.00;60274.75;6247335;28;20230;-40
2022/11/08 07:34:03;;;;;;;22.47;10.60;;;;;;;-144.22;100.00;60274.75;6265113;28;20329;-40
2022/11/08 07:37:05;;;;;;;20.53;11.80;;;;;;;-144.22;100.00;60274.75;6264819;28;20340;-41
2022/11/08 07:40:08;;;;;;;15.47;10.83;;;;;;;-144.22;100.00;60274.75;6262849;28;20270;-41
2022/11/08 07:43:10;;;;;;;13.80;8.40;;;;;;;-144.22;100.00;60274.75;6264750;28;20610;-41
2022/11/08 07:46:14;;;;;;;11.47;7.73;;;;;;;-144.22;100.00;60274.75;6266256;28;20343;-41
2022/11/08 07:49:16;;;;;;;16.90;11.10;;;;;;;-144.22;100.00;60274.75;6256209;28;20246;-41
2022/11/08 07:52:18;;;;;;;15.73;10.80;;;;;;;-144.22;100.00;60274.75;6266520;28;20231;-41
2022/11/08 07:55:20;;;;;;;20.50;11.93;;;;;;;-144.22;100.00;60274.75;6268613;28;20234;-41
2022/11/08 07:58:23;;;;;;;29.17;13.10;;;;;;;-144.22;100.00;60274.75;6264865;28;20740;-41
2022/11/08 08:01:25;;;;;;;26.17;12.57;;;;;;;-144.22;100.00;60274.75;6268393;28;20287;-41
2022/11/08 08:04:30;;;;;;;18.60;12.67;;;;;;;-144.22;100.00;60274.75;6265492;28;20237;-41
2022/11/08 08:07:34;;;;;;;20.10;13.10;;;;;;;-144.22;100.00;60274.75;6251505;28;20345;-41
2022/11/08 08:10:37;;;;;;;17.83;13.10;;;;;;;-144.22;100.00;60274.75;6263145;28;20282;-41
2022/11/08 08:13:39;;;;;;;20.10;12.83;;;;;;;-144.22;100.00;60274.75;6266664;28;20641;-41
2022/11/08 08:16:41;;;;;;;21.57;13.93;;;;;;;-144.22;100.00;60274.75;6262919;28;20273;-41
2022/11/08 08:19:43;;;;;;;20.10;13.83;;;;;;;-144.22;100.00;60274.75;6266097;28;20565;-41
2022/11/08 08:22:47;;;;;;;20.00;14.77;;;;;;;-144.22;100.00;60274.75;6267485;28;20633;-41
2022/11/08 08:25:50;;;;;;;19.20;14.27;;;;;;;-144.22;100.00;60274.75;6252950;28;20312;-41
2022/11/08 08:28:52;;;;;;;18.37;14.33;;;;;;;-144.22;100.00;60274.75;6262708;28;20243;-43
2022/11/08 08:31:54;;;;;;;23.03;13.53;;;;;;;-144.22;100.00;60274.75;6263051;28;20289;-41
2022/11/08 08:34:56;;;;;;;17.67;14.73;;;;;;;-144.22;100.00;60274.75;6266218;28;20786;-41
2022/11/08 08:38:00;;;;;;;19.27;15.70;;;;;;;-144.22;100.00;60274.75;6262116;28;20237;-42
2022/11/08 08:41:02;;;;;;;26.17;15.40;;;;;;;-144.22;100.00;60274.75;6265820;28;20739;-41
2022/11/08 08:44:04;;;;;;;26.23;15.10;;;;;;;-144.22;100.00;60274.75;6262008;28;20300;-41
2022/11/08 08:47:06;;;;;;;25.53;15.30;;;;;;;-144.22;100.00;60274.75;6265994;28;20245;-41
2022/11/08 08:50:09;;;;;;;28.93;15.97;;;;;;;-144.22;100.00;60274.75;6262826;28;20353;-41
2022/11/08 08:53:12;;;;;;;17.17;14.20;;;;;;;-144.22;100.00;60274.75;6272945;28;20696;-41
2022/11/08 08:56:14;;;;;;;30.60;14.93;;;;;;;-144.22;100.00;60274.75;6272062;28;20308;-41
2022/11/08 08:59:16;;;;;;;20.77;14.73;;;;;;;-144.22;100.00;60274.75;6272918;28;20709;-41
2022/11/08 09:02:38;;;;;;;18.97;15.03;;;;;;;-144.22;100.00;60274.75;6277746;28;20709;-41
2022/11/08 09:05:45;;;;;;;17.30;13.53;;;;;;;-144.22;100.00;60274.75;6272053;28;20237;-41
2022/11/08 09:08:47;;;;;;;25.10;15.73;;;;;;;-144.22;100.00;60274.75;6272313;28;20226;-41
2022/11/08 09:11:49;;;;;;;42.07;16.77;;;;;;;-144.22;100.00;60274.75;6278062;28;20222;-41
2022/11/08 09:14:52;;;;;;;29.40;15.13;;;;;;;-144.22;100.00;60274.75;6274472;28;20354;-41
2022/11/08 09:17:55;;;;;;;58.83;16.60;;;;;;;-144.22;100.00;60274.75;6274276;28;20226;-41
2022/11/08 09:20:57;;;;;;;69.90;15.50;;;;;;;-144.22;100.00;60274.75;6273108;28;20233;-41
2022/11/08 09:24:00;;;;;;;82.00;17.37;;;;;;;-144.22;100.00;60274.75;6275497;28;20667;-41
2022/11/08 09:27:02;;;;;;;74.80;16.63;;;;;;;-144.22;100.00;60274.75;6271562;28;20268;-41
2022/11/08 09:30:05;;;;;;;101.57;19.27;;;;;;;-144.22;100.00;60274.75;6271607;28;20219;-41
2022/11/08 09:33:07;;;;;;;108.37;19.63;;;;;;;-144.22;100.00;60274.75;6272763;28;20226;-41
2022/11/08 09:36:12;;;;;;;26.63;15.10;;;;;;;-144.22;100.00;60274.75;6248756;28;20210;-41
2022/11/08 09:39:15;;;;;;;67.53;19.80;;;;;;;-144.22;100.00;60274.75;6275884;28;20583;-41
2022/11/08 09:42:26;;;;;;;23.77;16.53;;;;;;;-144.22;100.00;60274.75;6273635;28;20214;-41
2022/11/08 09:45:45;;;;;;;40.70;18.60;;;;;;;-144.22;100.00;60274.75;6270774;28;20226;-41
2022/11/08 09:48:48;;;;;;;37.60;15.37;;;;;;;-144.22;100.00;60274.75;6271157;28;20603;-41
2022/11/08 09:51:50;;;;;;;29.13;16.33;;;;;;;-144.22;100.00;60274.75;6272403;28;20235;-41
2022/11/08 09:55:08;;;;;;;24.93;15.40;;;;;;;-144.22;100.00;60274.75;6276484;28;20234;-41
2022/11/08 09:58:10;;;;;;;21.10;14.97;;;;;;;-144.22;100.00;60274.75;6274178;28;20231;-41
2022/11/08 10:01:13;;;;;;;30.47;16.73;;;;;;;-144.22;100.00;60274.75;6271550;28;20231;-41
2022/11/08 10:04:20;;;;;;;43.00;17.07;;;;;;;-144.22;100.00;60274.75;6268905;28;20314;-41
2022/11/08 10:07:37;;;;;;;40.50;15.87;;;;;;;-144.22;100.00;60274.75;6251514;28;20289;-41
2022/11/08 10:10:56;;;;;;;25.93;15.67;;;;;;;-144.22;100.00;60274.75;6267660;28;20292;-41
2022/11/08 10:14:31;;;;;;;22.27;15.90;;;;;;;-144.22;100.00;60274.75;6267301;28;20227;-42
2022/11/08 10:17:53;;;;;;;21.57;16.10;;;;;;;-144.22;100.00;60274.75;6266175;28;20329;-41
2022/11/08 10:21:18;;;;;;;27.87;17.57;;;;;;;-144.22;100.00;60274.75;6266757;28;20284;-41
2022/11/08 10:24:36;;;;;;;25.37;15.13;;;;;;;-144.22;100.00;60274.75;6268882;28;20583;-41
2022/11/08 10:27:41;;;;;;;28.07;15.90;;;;;;;-144.22;100.00;60274.75;6266025;28;20265;-41
2022/11/08 10:30:48;;;;;;;20.40;15.50;;;;;;;-144.22;100.00;60274.75;6257024;28;20229;-40
2022/11/08 10:33:53;;;;;;;27.63;14.90;;;;;;;-144.22;100.00;60274.75;6268190;28;20254;-42
2022/11/08 10:37:05;;;;;;;18.37;14.20;;;;;;;-144.22;100.00;60274.75;6254273;28;20622;-41
2022/11/08 10:40:13;;;;;;;19.20;14.63;;;;;;;-144.22;100.00;60274.75;6267736;28;20233;-41
2022/11/08 10:43:33;;;;;;;30.67;13.97;;;;;;;-144.22;100.00;60274.75;6266471;28;20310;-41
2022/11/08 10:46:44;;;;;;;16.23;13.33;;;;;;;-144.22;100.00;60274.75;6266824;28;20296;-41
2022/11/08 10:49:46;;;;;;;16.77;13.30;;;;;;;-144.22;100.00;60274.75;6266522;28;20244;-40
2022/11/08 10:53:00;;;;;;;33.97;14.77;;;;;;;-144.22;100.00;60274.75;6270549;28;20336;-41
2022/11/08 10:56:04;;;;;;;40.80;14.27;;;;;;;-144.22;100.00;60274.75;6267775;28;20242;-42
2022/11/08 10:59:32;;;;;;;57.33;15.67;;;;;;;-144.22;100.00;60274.75;6236994;28;20242;-41
2022/11/08 11:02:35;;;;;;;51.60;16.87;;;;;;;-144.22;100.00;60274.75;6269561;28;20238;-42
2022/11/08 11:05:41;;;;;;;25.40;16.37;;;;;;;-144.22;100.00;60274.75;6261478;28;20235;-41
2022/11/08 11:08:54;;;;;;;37.37;16.93;;;;;;;-144.22;100.00;60274.75;6266093;28;20236;-42
2022/11/08 11:11:58;;;;;;;29.57;16.13;;;;;;;-144.22;100.00;60274.75;6264834;28;20249;-42
2022/11/08 11:15:02;;;;;;;59.17;18.23;;;;;;;-144.22;100.00;60274.75;6267169;28;20244;-41
2022/11/08 11:18:37;;;;;;;26.80;16.37;;;;;;;-144.22;100.00;60274.75;6253943;28;20232;-41
2022/11/08 11:21:42;;;;;;;42.70;16.87;;;;;;;-144.22;100.00;60274.75;6240336;28;20236;-42
2022/11/08 11:24:49;;;;;;;28.70;18.03;;;;;;;-144.22;100.00;60274.75;6268968;28;20280;-42
2022/11/08 11:27:56;;;;;;;78.87;19.13;;;;;;;-144.22;100.00;60274.75;6267626;28;20235;-41
2022/11/08 11:31:02;;;;;;;21.50;16.90;;;;;;;-144.22;100.00;60274.75;6266583;28;20299;-41
2022/11/08 11:34:16;;;;;;;29.97;17.50;;;;;;;-144.22;100.00;60274.75;6265009;28;20331;-42
2022/11/08 11:37:30;;;;;;;39.20;17.63;;;;;;;-144.22;100.00;60274.75;6263989;28;20319;-41
2022/11/08 11:40:45;;;;;;;46.53;18.03;;;;;;;-144.22;100.00;60274.75;6266650;28;20251;-41
2022/11/08 11:44:10;;;;;;;47.50;18.07;;;;;;;-144.22;100.00;60274.75;6264729;28;20239;-41
2022/11/08 11:47:19;;;;;;;29.83;16.73;;;;;;;-144.22;100.00;60274.75;6265593;28;20231;-41
2022/11/08 11:50:33;;;;;;;28.30;16.97;;;;;;;-144.22;100.00;60274.75;6262933;28;20229;-41
2022/11/08 11:53:36;;;;;;;19.57;15.20;;;;;;;-144.22;100.00;60274.75;6269344;28;20436;-41
2022/11/08 11:56:55;;;;;;;49.30;18.27;;;;;;;-144.22;100.00;60274.75;6264661;28;20232;-41
2022/11/08 12:00:06;;;;;;;92.87;20.17;;;;;;;-144.22;100.00;60274.75;6266010;28;20457;-41
2022/11/08 12:03:29;;;;;;;52.70;19.37;;;;;;;-144.22;100.00;60274.75;6266685;28;20237;-41
2022/11/08 12:06:55;;;;;;;30.07;16.97;;;;;;;-144.22;100.00;60274.75;6264431;28;20232;-42
2022/11/08 12:10:27;;;;;;;37.00;19.43;;;;;;;-144.22;100.00;60274.75;6264007;28;20240;-41
2022/11/08 12:13:48;;;;;;;28.23;19.10;;;;;;;-144.22;100.00;60274.75;6267754;28;20244;-41
2022/11/08 12:16:55;;;;;;;24.13;17.30;;;;;;;-144.22;100.00;60274.75;6264148;28;20237;-41
2022/11/08 12:20:17;;;;;;;26.60;19.63;;;;;;;-144.22;100.00;60274.75;6265220;28;20313;-41
2022/11/08 12:23:29;;;;;;;27.97;18.00;;;;;;;-144.22;100.00;60274.75;6265407;28;20259;-41
2022/11/08 12:26:42;;;;;;;31.90;20.07;;;;;;;-144.22;100.00;60274.75;6262582;28;20229;-41
2022/11/08 12:30:19;;;;;;;25.10;18.17;;;;;;;-144.22;100.00;60274.75;6263892;28;20235;-41
2022/11/08 12:33:50;;;;;;;24.07;17.40;;;;;;;-144.22;100.00;60274.75;6263479;28;20243;-41
2022/11/08 12:37:07;;;;;;;25.70;17.67;;;;;;;-144.22;100.00;60274.75;6230900;28;20309;-41
2022/11/08 12:40:31;;;;;;;25.27;18.27;;;;;;;-144.22;100.00;60274.75;6264451;28;20231;-41
2022/11/08 12:43:45;;;;;;;22.37;17.63;;;;;;;-144.22;100.00;60274.75;6263800;28;20324;-41
2022/11/08 12:47:06;;;;;;;24.13;17.07;;;;;;;-144.22;100.00;60274.75;6265375;28;20241;-41
2022/11/08 12:50:36;;;;;;;23.33;17.43;;;;;;;-144.22;100.00;60274.75;6263545;28;20379;-41
2022/11/08 12:54:12;;;;;;;24.17;16.43;;;;;;;-144.22;100.00;60274.75;6268285;28;20225;-41
2022/11/08 12:57:16;;;;;;;24.00;16.77;;;;;;;-144.22;100.00;60274.75;6263524;28;20293;-41
2022/11/08 13:00:19;;;;;;;21.83;15.80;;;;;;;-144.22;100.00;60274.75;6264131;28;20210;-41
2022/11/08 13:03:36;;;;;;;22.43;15.40;;;;;;;-144.22;100.00;60274.75;6261977;28;20690;-41
2022/11/08 13:06:58;;;;;;;18.13;14.20;;;;;;;-144.22;100.00;60274.75;6263634;28;20232;-41
2022/11/08 13:10:14;;;;;;;18.97;14.40;;;;;;;-144.22;100.00;60274.75;6263085;28;20437;-41
2022/11/08 13:13:44;;;;;;;19.13;15.20;;;;;;;-144.22;100.00;60274.75;6265291;28;20283;-41
2022/11/08 13:17:25;;;;;;;20.20;15.20;;;;;;;-144.22;100.00;60274.75;6263090;28;20229;-42
2022/11/08 13:20:45;;;;;;;19.13;14.80;;;;;;;-144.22;100.00;60274.75;6151899;28;20236;-41
2022/11/08 13:23:47;;;;;;;17.53;14.00;;;;;;;-144.22;100.00;60274.75;6153986;28;20299;-41
2022/11/08 13:26:49;;;;;;;17.93;14.37;;;;;;;-144.22;100.00;60274.75;6150647;28;20240;-41
2022/11/08 13:30:01;;;;;;;20.50;15.63;;;;;;;-144.22;100.00;60274.75;6152565;28;20676;-41
2022/11/08 13:33:39;;;;;;;18.87;15.47;;;;;;;-144.22;100.00;60274.75;6150436;28;20252;-41
2022/11/08 13:36:57;;;;;;;18.07;14.23;;;;;;;-144.22;100.00;60274.75;6104598;28;20313;-41
2022/11/08 13:40:24;;;;;;;17.53;13.60;;;;;;;-144.22;100.00;60274.75;6108586;29;20233;-41
2022/11/08 13:43:29;;;;;;;18.73;15.57;;;;;;;-144.22;100.00;60274.75;6114412;29;20586;-41
2022/11/08 13:46:31;;;;;;;18.27;14.43;;;;;;;-144.22;100.00;60274.75;6105098;29;20239;-41
2022/11/08 13:49:33;;;;;;;21.60;14.80;;;;;;;-144.22;100.00;60274.75;6107928;29;20592;-41
2022/11/08 13:52:46;;;;;;;23.40;15.90;;;;;;;-144.22;100.00;60274.75;6108282;29;20239;-41
2022/11/08 13:55:54;;;;;;;19.23;14.93;;;;;;;-144.22;100.00;60274.75;6194290;28;20662;-42
2022/11/08 13:58:57;;;;;;;16.37;13.03;;;;;;;-144.22;100.00;60274.75;6190875;28;20298;-41
2022/11/08 14:02:24;;;;;;;19.57;15.07;;;;;;;-144.22;100.00;60274.75;6190536;28;20336;-41
2022/11/08 14:05:28;;;;;;;19.43;15.93;;;;;;;-144.22;100.00;60274.75;6190432;28;20241;-41
2022/11/08 14:09:13;;;;;;;19.20;15.27;;;;;;;-144.22;100.00;60274.75;6189864;28;20245;-41
2022/11/08 14:12:49;;;;;;;18.77;14.50;;;;;;;-144.22;100.00;60274.75;6165317;28;20641;-42
2022/11/08 14:16:00;;;;;;;18.97;14.30;;;;;;;-144.22;100.00;60274.75;6266887;28;20954;-41
2022/11/08 14:19:25;;;;;;;18.20;14.63;;;;;;;-144.22;100.00;60274.75;6267270;28;20231;-41
2022/11/08 14:22:29;;;;;;;18.70;15.00;;;;;;;-144.22;100.00;60274.75;6270758;28;20230;-41